Handsom, Virginia
Current Conditions -  °F | °C
As of 11:15 PM on Thursday 27 Nov 2014 (Local Time) from KFKN Reporting Station
Overcast Overcast  
Wind Chill: 36°   Ceiling: 7000
Heat Index: 39°   Visibility: 10mi
Dew Point: 37°   Wind: 5mph
Humidity: 93%   Direction: 300°WNW
Pressure: 30.2"   Gusts: NA
Location:  36.6088°N, 77.0238°W
Report Text: KFKN 280415Z AUTO 30004KT 10SM SCT055 OVC070 04/03 A3020 RMK AO1
Loading
Personal Weather Stations






























Interactive Weather Map New forecast layout! Learn more

10-Day Weather Forecast

Advertisements
Track Severe Weather on mobile